Ahsahka, ID

3:04 AM PST on December 25, 2014 (GMT -0800)
Lowell | Change Station
CLOSE
Current Station
Airport
Location: Lowell,
Elevation: 1480 ft
Nearby Weather Stations
Active Advisory: Winter Weather Advisory

Elev 1480 ft 46.14 °N, 115.60 °W | Updated 12 minutes ago

Mostly Cloudy
Mostly Cloudy
36 °F
Feels Like 36 °F
N
0
Wind Variable Wind from North
Gusts 9 mph

Today
High -- | Low -- °F
--% Chance of Precip.
Yesterday
High -- | Low -- °F
Precip. -- in
7:27 AM 4:02 PM
Waxing Crescent, 15% visible
Pressure 29.91 in
Visibility -9999.0 miles
Clouds
Dew Point 35 °F
Humidity 97%
Rainfall 0.06 in
Snow Depth Not available.
UV Not available.
Pollen .10 out of 12
Air Quality Not available.
Flu Activity Not available.
METAR KP69 251052Z AUTO 00000KT 02/02 A2987 RMK AO1 SLP129 T00220017

More Conditions Fewer Conditions

Pressure 29.91 in
Visibility -9999.0 miles
Clouds
Dew Point 35 °F
Humidity 97%
Rainfall 0.06 in
Snow Depth Not available.
UV Not available.
Pollen .10 out of 12
Air Quality Not available.
Flu Activity Not available.
METAR KP69 251052Z AUTO 00000KT 02/02 A2987 RMK AO1 SLP129 T00220017

More Conditions Fewer Conditions

10-Day Weather Forecast

Almanac

Astronomy

Dec. 25, 2014 Rise Set
Actual Time
Civil Twilight
Nautical Twilight
Astronomical Twilight
Moon
Length of Visible Light
Length of Day
Tomorrow will be .
, % of the Moon is Illuminated

Today's Extremes

State Highs State Lows

Community

WunderPhotos

Upload Photos

1,780,259 photos uploaded!

WunderBlogs® & News

Nearby

Air Quality

  Air Quality AQ Index Pollutant
Not available.

Snow Depth

Station Depth Elevation

Earthquake Activity

City Distance Mag. Time & Date
Minimum magnitude displayed is 2.5.

Coastal Water Temperatures

Place Temperature

Nearby Weather Stations